Time;durP1;ratioP1;P1;durP2;ratioP2;P2;SDS_P1;SDS_P2;PMS_P1;PMS_P2;Temp;Humidity;BMP_temperature;BMP_pressure;BME280_temperature;BME280_humidity;BME280_pressure;Samples;Min_cycle;Max_cycle;Signal;HPM_P1;HPM_P2
2022/03/18 00:01:49;;;;;;;25.45;12.15;;;2.10;99.90;;;;;;5073290;28;20367;-76
2022/03/18 00:04:15;;;;;;;26.38;11.90;;;2.10;99.90;;;;;;5073127;28;20036;-76
2022/03/18 00:06:41;;;;;;;32.30;11.68;;;2.10;99.90;;;;;;5056599;28;20029;-76
2022/03/18 00:09:06;;;;;;;21.85;10.65;;;2.10;99.90;;;;;;5056302;28;20020;-76
2022/03/18 00:11:32;;;;;;;20.42;10.93;;;2.10;99.90;;;;;;5073117;28;20382;-76
2022/03/18 00:13:58;;;;;;;21.30;10.13;;;2.10;99.90;;;;;;5074223;28;20036;-76
2022/03/18 00:16:24;;;;;;;27.30;11.18;;;2.00;99.90;;;;;;5074167;28;20016;-76
2022/03/18 00:18:50;;;;;;;21.52;11.05;;;2.00;99.90;;;;;;5074033;28;20056;-76
2022/03/18 00:21:16;;;;;;;17.20;10.27;;;2.10;99.90;;;;;;5056332;28;20071;-76
2022/03/18 00:23:42;;;;;;;18.67;10.70;;;2.00;99.90;;;;;;5072867;28;20021;-76
2022/03/18 00:26:07;;;;;;;24.50;11.05;;;2.00;99.90;;;;;;5073958;28;20073;-76
2022/03/18 00:28:33;;;;;;;25.20;11.88;;;2.00;99.90;;;;;;5055733;28;20482;-76
2022/03/18 00:30:59;;;;;;;23.25;12.43;;;2.00;99.90;;;;;;5056004;28;20020;-76
2022/03/18 00:33:25;;;;;;;25.15;11.10;;;2.00;99.90;;;;;;5072558;28;20489;-76
2022/03/18 00:35:51;;;;;;;24.55;11.20;;;2.00;99.90;;;;;;5056001;28;20419;-76
2022/03/18 00:38:17;;;;;;;23.10;10.88;;;2.00;99.90;;;;;;5055380;28;20157;-76
2022/03/18 00:40:44;;;;;;;24.65;11.00;;;2.00;99.90;;;;;;5072559;28;20477;-76
2022/03/18 00:43:10;;;;;;;21.50;9.98;;;1.90;99.90;;;;;;5073575;28;20055;-76
2022/03/18 00:45:36;;;;;;;21.88;11.00;;;1.90;99.90;;;;;;5072333;28;20083;-76
2022/03/18 00:53:33;;;;;;;17.60;10.35;;;1.90;99.90;;;;;;5072389;28;20031;-76
2022/03/18 00:55:59;;;;;;;17.58;10.10;;;1.80;99.90;;;;;;5073481;28;20024;-76
2022/03/18 00:58:24;;;;;;;22.13;11.05;;;1.90;99.90;;;;;;5072209;28;20026;-76
2022/03/18 01:00:50;;;;;;;22.63;10.95;;;1.80;99.90;;;;;;5073379;28;20060;-76
2022/03/18 01:03:15;;;;;;;22.20;11.07;;;1.80;99.90;;;;;;5072299;28;20029;-76
2022/03/18 01:05:42;;;;;;;19.30;11.18;;;1.70;99.90;;;;;;5072274;28;20029;-76
2022/03/18 01:08:08;;;;;;;20.77;11.27;;;1.70;99.90;;;;;;5073279;28;20119;-76
2022/03/18 01:10:34;;;;;;;20.17;11.07;;;1.70;99.90;;;;;;5073207;28;20111;-76
2022/03/18 01:13:00;;;;;;;21.88;10.70;;;1.70;99.90;;;;;;5072145;28;20084;-76
2022/03/18 01:15:25;;;;;;;20.98;10.27;;;1.60;99.90;;;;;;5072006;28;20422;-75
2022/03/18 01:17:51;;;;;;;21.58;10.43;;;1.50;99.90;;;;;;5073171;28;20063;-76
2022/03/18 01:20:16;;;;;;;18.05;9.88;;;1.50;99.90;;;;;;5055194;28;20393;-75
2022/03/18 01:22:42;;;;;;;21.02;9.77;;;1.50;99.90;;;;;;5072041;28;20025;-76
2022/03/18 01:25:08;;;;;;;18.15;9.52;;;1.50;99.90;;;;;;5071888;28;20497;-76
2022/03/18 01:27:33;;;;;;;19.90;9.55;;;1.50;99.90;;;;;;5071848;28;20036;-76
2022/03/18 01:29:59;;;;;;;14.55;9.05;;;1.50;99.90;;;;;;5071654;28;20060;-75
2022/03/18 01:32:24;;;;;;;18.23;8.82;;;1.50;99.90;;;;;;5071919;28;20391;-75
2022/03/18 01:34:50;;;;;;;15.30;8.95;;;1.40;99.90;;;;;;5071889;28;20157;-76
2022/03/18 01:37:15;;;;;;;19.83;9.48;;;1.40;99.90;;;;;;5072994;28;20153;-76
2022/03/18 01:39:41;;;;;;;27.08;10.45;;;1.40;99.90;;;;;;5071848;28;20074;-75
2022/03/18 01:42:06;;;;;;;26.55;10.30;;;1.50;99.90;;;;;;5073020;28;20055;-76
2022/03/18 01:44:40;;;;;;;26.38;9.85;;;1.50;99.90;;;;;;5071882;28;20039;-76
2022/03/18 01:47:06;;;;;;;23.65;11.13;;;1.60;99.90;;;;;;5071898;28;20049;-75
2022/03/18 01:49:32;;;;;;;20.75;10.43;;;1.80;99.90;;;;;;5054941;28;20060;-75
2022/03/18 01:51:57;;;;;;;28.25;10.73;;;1.90;99.90;;;;;;5075196;28;20070;-76
2022/03/18 01:54:54;;;;;;;21.48;10.20;;;1.90;99.90;;;;;;5075767;28;20025;-76
2022/03/18 01:57:08;;;;;;;25.02;10.57;;;1.90;99.90;;;;;;5075690;28;20478;-76
2022/03/18 01:59:34;;;;;;;20.33;9.40;;;2.00;99.90;;;;;;5058886;28;20025;-75
2022/03/18 02:01:59;;;;;;;26.92;9.38;;;2.00;99.90;;;;;;5059013;28;20020;-76
2022/03/18 02:04:25;;;;;;;22.40;10.02;;;2.10;99.90;;;;;;5075404;28;20024;-76
2022/03/18 02:06:51;;;;;;;23.42;9.95;;;2.10;99.90;;;;;;5076701;28;20111;-76
2022/03/18 02:09:18;;;;;;;15.90;8.90;;;2.10;99.90;;;;;;5076590;28;20478;-76
2022/03/18 02:11:43;;;;;;;25.45;8.90;;;2.10;99.90;;;;;;5075383;28;20394;-76
2022/03/18 02:14:09;;;;;;;20.20;8.52;;;2.00;99.90;;;;;;5075241;28;20047;-75
2022/03/18 02:16:38;;;;;;;23.42;9.15;;;2.00;99.90;;;;;;5075407;28;20025;-76
2022/03/18 02:19:03;;;;;;;17.52;9.23;;;1.90;99.90;;;;;;5058926;28;20028;-76
2022/03/18 02:21:29;;;;;;;21.25;8.75;;;1.90;99.90;;;;;;5075334;28;20036;-76
2022/03/18 02:23:56;;;;;;;14.07;9.20;;;1.80;99.90;;;;;;5076315;28;20024;-76
2022/03/18 02:26:22;;;;;;;23.55;8.55;;;1.70;99.90;;;;;;5076295;28;20482;-76
2022/03/18 02:28:47;;;;;;;20.52;9.18;;;1.60;99.90;;;;;;5058088;28;20049;-76
2022/03/18 02:31:12;;;;;;;28.27;11.30;;;1.60;99.90;;;;;;5058285;28;20055;-76
2022/03/18 02:33:38;;;;;;;26.05;12.13;;;1.50;99.90;;;;;;5076228;28;20043;-76
2022/03/18 02:36:04;;;;;;;20.60;10.60;;;1.50;99.90;;;;;;5076216;28;20021;-76
2022/03/18 02:38:29;;;;;;;23.20;10.98;;;1.40;99.90;;;;;;5074789;28;20021;-76
2022/03/18 02:40:55;;;;;;;21.65;9.77;;;1.30;99.90;;;;;;5058075;28;20027;-76
2022/03/18 02:43:20;;;;;;;20.15;9.88;;;1.30;99.90;;;;;;5074822;28;20039;-76
2022/03/18 02:45:46;;;;;;;21.63;10.23;;;1.30;99.90;;;;;;5074818;28;20052;-76
2022/03/18 02:48:11;;;;;;;18.15;9.57;;;1.30;99.90;;;;;;5057926;28;20020;-76
2022/03/18 02:50:37;;;;;;;19.05;9.40;;;1.30;99.90;;;;;;5075873;28;20037;-75
2022/03/18 02:53:02;;;;;;;23.42;10.15;;;1.30;99.90;;;;;;5074512;28;20017;-76
2022/03/18 02:55:28;;;;;;;21.60;10.13;;;1.30;99.90;;;;;;5074503;28;20021;-76
2022/03/18 02:57:53;;;;;;;20.58;9.75;;;1.30;99.90;;;;;;5057724;28;20039;-75
2022/03/18 03:00:25;;;;;;;22.45;10.20;;;1.20;99.90;;;;;;5074492;28;20474;-75
2022/03/18 03:02:51;;;;;;;17.55;9.27;;;1.20;99.90;;;;;;5057987;28;20428;-75
2022/03/18 03:08:02;;;;;;;14.00;8.80;;;;;;;;;;5074298;28;20032;-75
2022/03/18 03:10:32;;;;;;;21.52;9.07;;;1.10;99.90;;;;;;5074223;28;20475;-76
2022/03/18 03:12:59;;;;;;;24.67;10.48;;;1.20;99.90;;;;;;5074287;28;20013;-76
2022/03/18 03:15:26;;;;;;;24.27;10.52;;;1.20;99.90;;;;;;5074225;28;20020;-75
2022/03/18 03:17:52;;;;;;;21.35;9.38;;;1.20;99.90;;;;;;5074163;28;20025;-76
2022/03/18 03:20:17;;;;;;;27.30;10.63;;;1.30;99.90;;;;;;5074028;28;20086;-76
2022/03/18 03:22:43;;;;;;;22.48;10.90;;;1.30;99.90;;;;;;5074091;28;20032;-75
2022/03/18 03:25:08;;;;;;;18.17;10.75;;;1.30;99.90;;;;;;5057193;28;20031;-76
2022/03/18 03:27:34;;;;;;;18.42;9.90;;;1.30;99.90;;;;;;5073988;28;20061;-75
2022/03/18 03:30:00;;;;;;;18.30;9.95;;;1.20;99.90;;;;;;5073535;28;20128;-76
2022/03/18 03:32:27;;;;;;;14.73;9.10;;;1.10;99.90;;;;;;5057058;28;20021;-76
2022/03/18 03:34:54;;;;;;;16.83;9.85;;;1.00;99.90;;;;;;5057235;28;20017;-75
2022/03/18 03:37:19;;;;;;;16.08;9.32;;;1.00;99.90;;;;;;5073689;28;20023;-76
2022/03/18 03:39:45;;;;;;;16.42;9.88;;;1.00;99.90;;;;;;5075018;28;20029;-76
2022/03/18 03:42:10;;;;;;;17.88;9.20;;;0.90;99.90;;;;;;5073599;28;20028;-75
2022/03/18 03:44:35;;;;;;;17.00;8.57;;;0.80;99.90;;;;;;5074880;28;20035;-76
2022/03/18 03:47:01;;;;;;;17.05;9.65;;;0.80;99.90;;;;;;5074780;28;20425;-76
2022/03/18 03:49:26;;;;;;;23.02;10.27;;;0.70;99.90;;;;;;5074647;28;20071;-75
2022/03/18 03:51:52;;;;;;;21.65;9.85;;;0.70;99.90;;;;;;5073509;28;20028;-75
2022/03/18 03:54:17;;;;;;;22.25;10.23;;;0.70;99.90;;;;;;5073468;28;20099;-75
2022/03/18 03:56:43;;;;;;;16.80;9.18;;;0.60;99.90;;;;;;5073278;28;20020;-76
2022/03/18 03:59:08;;;;;;;16.55;9.85;;;0.60;99.90;;;;;;5073225;28;20394;-75
2022/03/18 04:01:34;;;;;;;15.80;9.00;;;0.50;99.90;;;;;;5073330;28;20115;-75
2022/03/18 04:03:59;;;;;;;20.08;9.68;;;0.50;99.90;;;;;;5073205;28;20024;-75
2022/03/18 04:06:25;;;;;;;18.40;9.93;;;0.40;99.90;;;;;;5073123;28;20024;-75
2022/03/18 04:08:51;;;;;;;17.80;9.88;;;0.40;99.90;;;;;;5074214;28;20024;-75
2022/03/18 04:11:17;;;;;;;15.23;8.80;;;0.40;99.90;;;;;;5074241;28;20099;-75
2022/03/18 04:13:42;;;;;;;18.23;10.10;;;0.40;99.90;;;;;;5073445;28;20490;-75
2022/03/18 04:16:07;;;;;;;21.08;10.68;;;0.30;99.90;;;;;;5056281;28;20437;-75
2022/03/18 04:18:33;;;;;;;22.48;10.05;;;0.30;99.90;;;;;;5072855;28;20107;-75
2022/03/18 04:20:58;;;;;;;19.40;10.30;;;0.20;99.90;;;;;;5056192;28;20518;-75
2022/03/18 04:23:24;;;;;;;19.48;9.80;;;0.20;99.90;;;;;;5072830;28;20028;-75
2022/03/18 04:25:51;;;;;;;24.35;11.73;;;0.20;99.90;;;;;;5056198;28;20445;-75
2022/03/18 04:28:17;;;;;;;22.08;11.65;;;0.20;99.90;;;;;;5072486;28;20493;-75
2022/03/18 04:30:43;;;;;;;21.88;11.70;;;0.20;99.90;;;;;;5055937;28;20029;-75
2022/03/18 04:33:08;;;;;;;21.08;11.57;;;0.10;99.90;;;;;;5072677;28;20430;-75
2022/03/18 04:35:34;;;;;;;35.42;13.27;;;0.00;99.90;;;;;;5073912;28;20501;-75
2022/03/18 04:38:00;;;;;;;18.85;11.13;;;0.00;99.90;;;;;;5072587;28;20032;-75
2022/03/18 04:40:26;;;;;;;20.35;11.05;;;0.00;99.90;;;;;;5073703;28;20551;-75
2022/03/18 04:42:51;;;;;;;22.33;11.23;;;-0.10;99.90;;;;;;5073710;28;20478;-75
2022/03/18 04:45:17;;;;;;;20.35;12.90;;;-0.10;99.90;;;;;;5055734;28;20031;-75
2022/03/18 04:47:43;;;;;;;27.00;12.80;;;-0.10;99.90;;;;;;5073617;28;20465;-75
2022/03/18 04:50:09;;;;;;;27.88;13.75;;;-0.10;99.90;;;;;;5073583;28;20058;-75
2022/03/18 04:52:35;;;;;;;26.45;13.07;;;-0.10;99.90;;;;;;5055773;28;20039;-75
2022/03/18 04:55:01;;;;;;;19.35;12.18;;;-0.10;99.90;;;;;;5072344;28;20028;-75
2022/03/18 04:57:26;;;;;;;24.75;12.07;;;;;;;;;;5073464;28;20050;-75
2022/03/18 04:59:52;;;;;;;21.05;11.98;;;-0.20;99.90;;;;;;5072285;28;20016;-75
2022/03/18 05:02:20;;;;;;;26.25;13.10;;;-0.30;99.90;;;;;;5072282;28;20032;-75
2022/03/18 05:04:48;;;;;;;25.67;13.20;;;-0.30;99.90;;;;;;5072296;28;20520;-75
2022/03/18 05:07:14;;;;;;;29.13;14.13;;;-0.30;99.90;;;;;;5073379;28;20367;-75
2022/03/18 05:09:41;;;;;;;23.38;13.68;;;-0.20;99.90;;;;;;5055242;28;20387;-75
2022/03/18 05:12:08;;;;;;;29.45;14.00;;;-0.20;99.90;;;;;;5072194;28;20519;-75
2022/03/18 05:14:35;;;;;;;22.42;14.27;;;-0.20;99.90;;;;;;5055700;28;20059;-75
2022/03/18 05:17:01;;;;;;;25.33;14.45;;;-0.20;99.90;;;;;;5072069;28;20096;-75
2022/03/18 05:19:27;;;;;;;29.83;15.48;;;-0.20;99.90;;;;;;5073160;28;20497;-75
2022/03/18 05:21:52;;;;;;;23.33;13.90;;;-0.20;99.90;;;;;;5072043;28;20021;-75
2022/03/18 05:24:18;;;;;;;26.92;13.55;;;-0.20;99.90;;;;;;5071702;28;20482;-75
2022/03/18 05:26:43;;;;;;;22.70;14.75;;;-0.30;99.90;;;;;;5071886;28;20029;-75
2022/03/18 05:29:09;;;;;;;24.63;14.27;;;-0.30;99.90;;;;;;5072827;28;20124;-75
2022/03/18 05:31:36;;;;;;;30.70;15.25;;;-0.30;99.90;;;;;;5073099;28;20021;-75
2022/03/18 05:34:02;;;;;;;25.23;14.65;;;-0.30;99.90;;;;;;5073088;28;20069;-75
2022/03/18 05:36:27;;;;;;;25.38;14.48;;;-0.30;99.90;;;;;;5055066;28;20436;-75
2022/03/18 05:38:53;;;;;;;25.85;14.60;;;-0.30;99.90;;;;;;5071772;28;20116;-75
2022/03/18 05:41:18;;;;;;;25.52;15.77;;;-0.30;99.90;;;;;;5073061;28;20098;-75
2022/03/18 05:43:44;;;;;;;33.08;16.75;;;-0.20;99.90;;;;;;5071850;28;20028;-75
2022/03/18 05:46:11;;;;;;;28.67;17.90;;;-0.20;99.90;;;;;;5073006;28;20095;-75
2022/03/18 05:48:36;;;;;;;29.75;18.02;;;-0.10;99.90;;;;;;5071769;28;20023;-75
2022/03/18 05:51:02;;;;;;;31.05;17.63;;;0.00;99.90;;;;;;5071728;28;20111;-75
2022/03/18 05:53:28;;;;;;;31.75;17.65;;;0.00;99.90;;;;;;5071740;28;20024;-75
2022/03/18 05:58:41;;;;;;;26.55;16.63;;;0.10;99.90;;;;;;5071670;28;20111;-75
2022/03/18 06:01:07;;;;;;;31.98;17.83;;;0.10;99.90;;;;;;5071685;28;20028;-75
2022/03/18 06:03:33;;;;;;;28.23;17.55;;;0.20;99.90;;;;;;5072791;28;20020;-76
2022/03/18 06:05:58;;;;;;;35.33;18.38;;;0.20;99.90;;;;;;5071598;28;20074;-75
2022/03/18 06:13:55;;;;;;;30.13;18.83;;;0.30;99.90;;;;;;5072459;28;20025;-75
2022/03/18 06:16:20;;;;;;;34.13;20.60;;;0.50;99.90;;;;;;5072573;28;20028;-75
2022/03/18 06:18:46;;;;;;;37.67;22.42;;;0.60;99.90;;;;;;5071275;28;20020;-75
2022/03/18 06:21:13;;;;;;;47.58;25.02;;;0.80;99.90;;;;;;5071382;28;20024;-75
2022/03/18 06:23:38;;;;;;;43.45;25.38;;;1.40;99.90;;;;;;5072585;28;20407;-75
2022/03/18 06:26:04;;;;;;;46.70;24.45;;;2.30;99.90;;;;;;5071221;28;20016;-76
2022/03/18 06:28:31;;;;;;;34.47;19.50;;;2.80;99.90;;;;;;5071117;28;20076;-76
2022/03/18 06:30:56;;;;;;;29.38;15.25;;;3.50;99.90;;;;;;5071187;28;20017;-76
2022/03/18 06:33:22;;;;;;;23.75;13.63;;;4.20;99.90;;;;;;5072576;28;20074;-76
2022/03/18 06:35:48;;;;;;;22.52;11.45;;;5.00;99.90;;;;;;5072593;28;20028;-76
2022/03/18 06:38:14;;;;;;;20.55;10.02;;;5.80;99.90;;;;;;5074704;28;20025;-76
2022/03/18 06:40:40;;;;;;;23.10;10.70;;;6.50;99.90;;;;;;5074712;28;20027;-76
2022/03/18 06:43:06;;;;;;;21.88;10.02;;;7.30;99.90;;;;;;5074727;28;20021;-76
2022/03/18 06:45:31;;;;;;;18.17;10.18;;;8.20;99.90;;;;;;5057956;28;20025;-76
2022/03/18 06:47:57;;;;;;;22.15;9.43;;;8.40;99.90;;;;;;5057948;28;20024;-76
2022/03/18 06:50:24;;;;;;;19.55;10.25;;;9.80;99.90;;;;;;5075692;28;20028;-76
2022/03/18 06:52:50;;;;;;;18.98;10.02;;;10.20;99.90;;;;;;5075857;28;20017;-76
2022/03/18 06:55:16;;;;;;;23.27;8.82;;;10.30;99.90;;;;;;5074489;28;20093;-76
2022/03/18 06:57:42;;;;;;;24.05;8.57;;;10.30;99.90;;;;;;5057854;28;20025;-76
2022/03/18 07:00:08;;;;;;;22.08;8.80;;;10.60;99.90;;;;;;5074504;28;20052;-76
2022/03/18 07:02:34;;;;;;;15.75;8.35;;;10.00;99.90;;;;;;5074356;28;20064;-76
2022/03/18 07:04:59;;;;;;;20.45;9.50;;;9.50;99.90;;;;;;5057580;28;20125;-76
2022/03/18 07:07:25;;;;;;;16.95;8.10;;;9.50;99.90;;;;;;5074368;28;20025;-76
2022/03/18 07:09:50;;;;;;;19.35;8.68;;;10.20;99.90;;;;;;5057417;28;20024;-76
2022/03/18 07:12:16;;;;;;;16.55;8.45;;;10.40;99.90;;;;;;5074195;28;20060;-76
2022/03/18 07:14:42;;;;;;;13.68;8.55;;;10.80;99.90;;;;;;5057422;28;20127;-76
2022/03/18 07:19:53;;;;;;;19.23;8.65;;;12.80;99.90;;;;;;5074110;28;20028;-76
2022/03/18 07:22:19;;;;;;;19.27;8.40;;;13.10;99.90;;;;;;5057258;28;20082;-76
2022/03/18 07:24:45;;;;;;;14.30;8.20;;;13.40;99.90;;;;;;5075221;28;20112;-76
2022/03/18 07:27:10;;;;;;;15.85;9.23;;;13.30;99.90;;;;;;5075082;28;20031;-76
2022/03/18 07:29:36;;;;;;;17.80;9.05;;;13.60;99.90;;;;;;5073555;28;20048;-75
2022/03/18 07:32:03;;;;;;;18.95;9.75;;;13.80;99.90;;;;;;5073769;28;20048;-76
2022/03/18 07:34:29;;;;;;;19.10;12.38;;;14.70;99.90;;;;;;5075019;28;20020;-76
2022/03/18 07:36:54;;;;;;;22.33;10.68;;;15.00;99.90;;;;;;5074955;28;20028;-76
2022/03/18 07:39:20;;;;;;;18.10;9.57;;;15.50;96.40;;;;;;5073377;28;20059;-76
2022/03/18 07:41:45;;;;;;;22.40;10.50;;;15.80;95.30;;;;;;5056928;28;20036;-76
2022/03/18 07:44:11;;;;;;;17.23;9.88;;;16.10;93.90;;;;;;5056892;28;20089;-75
2022/03/18 07:46:37;;;;;;;19.02;10.80;;;15.70;93.80;;;;;;5073700;28;20024;-76
2022/03/18 07:49:02;;;;;;;21.63;11.05;;;15.50;95.30;;;;;;5073221;28;20035;-76
2022/03/18 07:51:30;;;;;;;20.75;10.65;;;15.50;94.10;;;;;;5074148;28;20028;-76
2022/03/18 07:53:56;;;;;;;17.45;11.70;;;15.40;93.80;;;;;;5073562;28;20023;-76
2022/03/18 07:56:22;;;;;;;20.98;11.60;;;15.10;96.30;;;;;;5073049;28;20024;-76
2022/03/18 07:58:47;;;;;;;14.55;10.07;;;15.30;95.20;;;;;;5073255;28;20191;-76
2022/03/18 08:01:13;;;;;;;19.83;11.02;;;14.90;95.10;;;;;;5085489;28;20013;-76
2022/03/18 08:03:39;;;;;;;19.73;10.38;;;15.10;94.90;;;;;;5073458;28;20119;-76
2022/03/18 08:06:04;;;;;;;23.08;10.25;;;15.30;94.50;;;;;;5074284;28;20021;-76
2022/03/18 08:08:31;;;;;;;17.83;9.85;;;15.10;95.80;;;;;;5072959;28;20028;-76
2022/03/18 08:10:57;;;;;;;15.95;9.57;;;15.40;95.60;;;;;;5070862;28;20094;-75
2022/03/18 08:13:23;;;;;;;23.63;10.20;;;16.20;93.40;;;;;;5070835;28;20466;-76
2022/03/18 08:15:49;;;;;;;23.70;10.02;;;16.00;93.30;;;;;;5054386;28;20435;-75
2022/03/18 08:18:15;;;;;;;18.83;10.32;;;15.70;93.50;;;;;;5071722;28;20632;-76
2022/03/18 08:20:41;;;;;;;18.38;9.57;;;15.80;93.60;;;;;;5057415;28;20028;-75
2022/03/18 08:23:14;;;;;;;15.10;9.43;;;15.30;95.70;;;;;;5060564;28;20023;-76
2022/03/18 08:25:40;;;;;;;18.10;9.68;;;16.10;93.40;;;;;;5072411;28;20063;-76
2022/03/18 08:28:07;;;;;;;18.27;9.73;;;16.40;92.00;;;;;;5062120;28;20029;-76
2022/03/18 08:30:33;;;;;;;20.17;9.23;;;15.20;93.60;;;;;;5053389;28;20479;-76
2022/03/18 08:32:59;;;;;;;16.92;8.90;;;15.30;94.10;;;;;;5053398;28;20025;-76
2022/03/18 08:35:24;;;;;;;17.13;8.68;;;15.90;91.10;;;;;;5036924;28;21463;-75
2022/03/18 08:37:57;;;;;;;18.23;8.88;;;16.00;91.70;;;;;;5037058;28;20035;-75
2022/03/18 08:40:28;;;;;;;20.15;8.80;;;16.40;91.20;;;;;;5036850;28;20025;-76
2022/03/18 08:42:55;;;;;;;19.13;8.63;;;16.60;90.00;;;;;;5044648;28;20040;-75
2022/03/18 08:45:22;;;;;;;17.17;9.13;;;16.60;87.70;;;;;;5070865;28;20391;-75
2022/03/18 08:47:48;;;;;;;16.58;9.25;;;16.10;89.60;;;;;;5066306;28;20028;-75
2022/03/18 08:50:14;;;;;;;18.55;8.90;;;16.30;90.60;;;;;;5052335;28;20475;-76
2022/03/18 08:52:40;;;;;;;15.43;8.20;;;16.40;90.20;;;;;;5054687;28;20108;-75
2022/03/18 08:55:07;;;;;;;14.55;7.72;;;16.20;89.20;;;;;;5053525;28;20056;-75
2022/03/18 08:57:36;;;;;;;12.77;8.23;;;16.50;88.50;;;;;;5041248;28;20032;-76
2022/03/18 09:00:05;;;;;;;14.98;6.57;;;16.30;88.80;;;;;;5073099;28;20024;-76
2022/03/18 09:02:31;;;;;;;14.82;6.53;;;16.40;88.90;;;;;;5073252;28;20066;-76
2022/03/18 09:04:56;;;;;;;14.30;6.60;;;15.90;88.70;;;;;;5055528;28;20514;-75
2022/03/18 09:07:22;;;;;;;14.02;6.05;;;16.20;90.00;;;;;;5054848;28;20095;-76
2022/03/18 09:09:47;;;;;;;10.00;5.57;;;16.50;88.00;;;;;;5071958;28;20024;-75
2022/03/18 09:12:16;;;;;;;10.63;5.68;;;15.30;91.10;;;;;;5071493;28;20025;-76
2022/03/18 09:14:42;;;;;;;11.40;5.80;;;15.50;91.30;;;;;;5065040;28;20096;-76
2022/03/18 09:17:07;;;;;;;12.98;6.55;;;13.80;93.20;;;;;;5055398;28;20491;-76
2022/03/18 09:19:37;;;;;;;15.45;6.68;;;14.10;95.10;;;;;;5071737;28;20020;-76
2022/03/18 09:22:05;;;;;;;15.20;6.32;;;14.90;94.20;;;;;;5071525;28;20024;-76
2022/03/18 09:24:30;;;;;;;10.23;5.03;;;15.70;92.00;;;;;;5068447;28;20021;-76
2022/03/18 09:26:56;;;;;;;11.13;4.78;;;16.00;89.00;;;;;;5051954;28;20032;-76
2022/03/18 09:29:24;;;;;;;10.85;4.75;;;16.30;90.70;;;;;;5052597;28;20079;-76
2022/03/18 09:31:50;;;;;;;10.50;4.43;;;16.20;90.20;;;;;;5052883;28;20414;-75
2022/03/18 09:34:16;;;;;;;10.57;4.25;;;15.70;84.90;;;;;;5068382;28;20025;-76
2022/03/18 09:36:42;;;;;;;8.55;4.30;;;15.20;88.00;;;;;;5055762;28;20024;-76
2022/03/18 09:39:07;;;;;;;8.52;3.95;;;15.20;90.50;;;;;;5054011;28;20127;-76
2022/03/18 09:41:33;;;;;;;10.43;3.80;;;15.60;90.20;;;;;;5066347;28;20060;-76
2022/03/18 09:43:58;;;;;;;10.75;4.30;;;15.30;88.50;;;;;;5079803;28;20119;-75
2022/03/18 09:46:25;;;;;;;12.68;4.35;;;14.40;91.60;;;;;;5071573;28;20061;-76
2022/03/18 09:48:51;;;;;;;12.13;4.50;;;15.00;90.40;;;;;;5071595;28;20108;-76
2022/03/18 09:51:19;;;;;;;11.27;4.72;;;15.00;91.10;;;;;;5054870;28;20539;-76
2022/03/18 09:53:44;;;;;;;11.63;4.85;;;14.80;91.90;;;;;;5071496;28;20023;-76
2022/03/18 09:56:11;;;;;;;10.30;4.40;;;15.40;91.10;;;;;;5071491;28;20394;-75
2022/03/18 09:58:37;;;;;;;10.43;4.68;;;15.50;91.50;;;;;;5071595;28;20013;-76
2022/03/18 10:01:03;;;;;;;8.98;4.30;;;15.30;91.10;;;;;;5071448;28;20021;-76
2022/03/18 10:03:38;;;;;;;12.70;4.15;;;15.90;88.90;;;;;;5054606;28;20025;-76
2022/03/18 10:06:04;;;;;;;10.55;3.83;;;15.40;90.00;;;;;;5071453;28;20028;-75
2022/03/18 10:11:18;;;;;;;9.95;4.45;;;15.20;90.60;;;;;;5070564;28;20784;-75
2022/03/18 10:13:53;;;;;;;11.63;4.65;;;14.70;90.90;;;;;;5069073;28;20060;-75
2022/03/18 10:16:37;;;;;;;12.32;5.35;;;15.20;91.90;;;;;;5069188;28;20455;-76
2022/03/18 10:19:12;;;;;;;10.27;5.18;;;15.30;90.90;;;;;;5069120;28;20024;-75
2022/03/18 10:22:02;;;;;;;14.55;5.95;;;15.50;91.90;;;;;;5069093;28;20024;-76
2022/03/18 10:24:34;;;;;;;16.88;5.38;;;14.30;91.90;;;;;;5070136;28;20032;-75
2022/03/18 10:27:19;;;;;;;11.52;5.28;;;14.10;93.30;;;;;;5068812;28;20032;-75
2022/03/18 10:29:52;;;;;;;10.65;4.45;;;14.30;93.00;;;;;;5068607;28;20371;-75
2022/03/18 10:32:19;;;;;;;12.63;5.82;;;13.90;94.80;;;;;;5068779;28;20434;-75
2022/03/18 10:37:45;;;;;;;12.75;5.93;;;14.60;92.90;;;;;;5069808;28;20368;-76
2022/03/18 10:40:12;;;;;;;12.40;5.20;;;15.30;93.60;;;;;;5070251;28;20078;-76
2022/03/18 10:42:38;;;;;;;13.38;5.35;;;15.30;91.10;;;;;;5068570;28;20028;-76
2022/03/18 10:45:05;;;;;;;9.63;5.30;;;15.00;91.90;;;;;;5051894;28;20120;-76
2022/03/18 10:50:15;;;;;;;11.32;5.18;;;14.00;93.50;;;;;;5111085;27;20744;-76
2022/03/18 10:53:01;;;;;;;9.32;5.22;;;14.30;93.90;;;;;;5098669;28;20089;-76
2022/03/18 10:55:44;;;;;;;9.20;4.93;;;14.40;93.40;;;;;;5109759;28;20020;-76
2022/03/18 10:58:14;;;;;;;11.82;5.65;;;14.40;94.30;;;;;;5110736;28;20417;-76
2022/03/18 11:00:46;;;;;;;12.80;5.47;;;15.20;93.00;;;;;;5090145;28;20363;-75
2022/03/18 11:03:13;;;;;;;10.63;4.95;;;14.20;94.20;;;;;;5090567;28;20385;-75
2022/03/18 11:05:40;;;;;;;16.00;5.57;;;14.40;94.40;;;;;;5081011;28;20028;-76
2022/03/18 11:08:11;;;;;;;13.60;5.85;;;15.20;93.80;;;;;;5088701;28;20032;-75
2022/03/18 11:13:29;;;;;;;11.50;5.55;;;15.20;91.70;;;;;;5091041;28;20508;-76
2022/03/18 11:15:56;;;;;;;13.60;6.28;;;15.00;92.20;;;;;;5095275;28;20490;-75
2022/03/18 11:18:22;;;;;;;15.05;5.75;;;14.90;91.20;;;;;;5098851;28;20016;-76
2022/03/18 11:20:50;;;;;;;12.30;5.22;;;14.50;91.70;;;;;;5108541;28;20466;-75
2022/03/18 11:23:20;;;;;;;13.70;6.05;;;14.60;93.00;;;;;;5104475;28;20047;-74
2022/03/18 11:25:49;;;;;;;13.45;6.07;;;14.90;93.10;;;;;;5090067;28;20032;-74
2022/03/18 11:28:17;;;;;;;11.93;6.22;;;14.60;91.80;;;;;;5090964;28;20028;-74
2022/03/18 11:30:44;;;;;;;14.10;6.40;;;14.70;93.10;;;;;;5088496;28;20080;-74
2022/03/18 11:35:53;;;;;;;12.95;5.65;;;14.90;94.40;;;;;;5110880;27;20115;-75
2022/03/18 11:38:23;;;;;;;16.13;6.30;;;14.30;92.80;;;;;;5105020;28;20497;-75
2022/03/18 11:40:59;;;;;;;14.57;5.70;;;14.20;94.10;;;;;;5086618;28;20123;-75
2022/03/18 11:43:33;;;;;;;11.18;5.40;;;13.80;93.00;;;;;;5128754;28;20020;-75
2022/03/18 11:48:54;;;;;;;10.50;5.65;;;13.80;93.80;;;;;;5090777;27;20356;-75
2022/03/18 11:51:37;;;;;;;11.73;5.90;;;14.20;95.50;;;;;;5083946;28;20016;-75
2022/03/18 11:54:16;;;;;;;11.88;5.65;;;13.70;92.70;;;;;;5071855;28;20025;-75
2022/03/18 11:56:52;;;;;;;13.73;6.32;;;13.80;93.10;;;;;;5072283;28;20035;-76
2022/03/18 12:02:09;;;;;;;14.77;5.75;;;13.50;94.00;;;;;;5111175;27;20124;-76
2022/03/18 12:07:30;;;;;;;12.30;6.20;;;13.60;93.10;;;;;;5111206;27;20664;-75
2022/03/18 12:10:07;;;;;;;10.40;6.22;;;13.50;94.00;;;;;;5110461;28;20069;-75
2022/03/18 12:12:37;;;;;;;9.95;6.47;;;13.70;93.10;;;;;;5094022;28;20611;-75
2022/03/18 12:15:08;;;;;;;12.90;6.63;;;13.60;95.60;;;;;;5110499;28;20016;-75
2022/03/18 12:17:45;;;;;;;15.07;6.95;;;13.40;94.40;;;;;;5093152;28;20475;-75
2022/03/18 12:20:15;;;;;;;15.90;7.45;;;13.50;95.30;;;;;;5110019;28;20020;-75
2022/03/18 12:22:42;;;;;;;11.98;6.88;;;13.60;97.00;;;;;;5092144;28;20036;-75
2022/03/18 12:25:08;;;;;;;14.10;7.13;;;13.80;96.80;;;;;;5100657;28;20077;-75
2022/03/18 12:27:36;;;;;;;16.05;7.38;;;13.90;97.00;;;;;;5109138;28;20106;-76
2022/03/18 12:30:05;;;;;;;13.38;6.90;;;13.90;96.40;;;;;;5109164;28;20024;-75
2022/03/18 12:32:31;;;;;;;12.07;7.07;;;13.60;96.70;;;;;;5110386;28;20516;-75
2022/03/18 12:34:58;;;;;;;16.38;7.10;;;13.60;96.50;;;;;;5071064;28;20020;-75
2022/03/18 12:37:31;;;;;;;14.93;7.55;;;13.80;96.70;;;;;;5071864;28;20482;-75
2022/03/18 12:40:08;;;;;;;15.52;5.88;;;14.00;95.50;;;;;;5087971;28;20023;-76
2022/03/18 12:42:56;;;;;;;10.75;5.70;;;13.90;94.30;;;;;;5110139;28;20031;-76
2022/03/18 12:45:27;;;;;;;14.88;6.40;;;13.70;94.90;;;;;;5109387;28;20528;-76
2022/03/18 12:47:54;;;;;;;12.73;5.90;;;14.00;96.70;;;;;;5108890;28;20461;-75
2022/03/18 12:50:24;;;;;;;17.15;7.05;;;14.10;96.20;;;;;;5108038;28;20769;-76
2022/03/18 12:52:49;;;;;;;14.75;6.53;;;14.30;95.70;;;;;;5108500;28;20016;-76
2022/03/18 12:55:17;;;;;;;12.93;6.30;;;13.90;96.00;;;;;;5091301;28;20366;-76
2022/03/18 12:57:43;;;;;;;11.98;6.65;;;13.90;96.80;;;;;;5110036;28;20027;-76
2022/03/18 13:00:11;;;;;;;17.38;6.47;;;14.00;96.70;;;;;;5108680;28;20027;-76
2022/03/18 13:02:41;;;;;;;17.40;5.93;;;14.00;97.60;;;;;;5101499;28;20052;-75
2022/03/18 13:05:07;;;;;;;9.30;5.50;;;14.00;96.90;;;;;;5090662;28;20137;-75
2022/03/18 13:07:33;;;;;;;15.00;6.40;;;14.20;96.70;;;;;;5099833;28;20131;-76
2022/03/18 13:10:00;;;;;;;14.15;5.97;;;14.10;95.50;;;;;;5109842;28;20020;-76
2022/03/18 13:12:28;;;;;;;12.50;5.97;;;14.10;96.00;;;;;;5109535;28;20054;-76
2022/03/18 13:14:54;;;;;;;14.48;5.68;;;14.30;95.00;;;;;;5109653;28;20550;-76
2022/03/18 13:17:22;;;;;;;14.32;6.07;;;14.30;94.70;;;;;;5103146;28;20012;-75
2022/03/18 13:19:50;;;;;;;12.48;6.28;;;14.20;95.00;;;;;;5096241;28;20128;-75